sensor_id;sensor_type;location;lat;lon;timestamp;pressure;altitude;pressure_sealevel;temperature;humidity
61109;BME280;46995;55.740;37.402;2023-03-04T00:00:38;97825.75;;;-0.56;76.11
61109;BME280;46995;55.740;37.402;2023-03-04T00:06:08;97764.41;;;-0.94;76.66
61109;BME280;46995;55.740;37.402;2023-03-04T00:08:37;97772.50;;;-0.86;76.24
61109;BME280;46995;55.740;37.402;2023-03-04T00:11:03;97805.44;;;-0.62;76.33
61109;BME280;46995;55.740;37.402;2023-03-04T00:13:37;97795.00;;;-0.73;76.54
61109;BME280;46995;55.740;37.402;2023-03-04T00:16:09;97774.88;;;-0.82;76.33
61109;BME280;46995;55.740;37.402;2023-03-04T00:18:47;97767.75;;;-0.92;76.42
61109;BME280;46995;55.740;37.402;2023-03-04T00:21:14;97760.06;;;-0.93;76.36
61109;BME280;46995;55.740;37.402;2023-03-04T00:23:42;97761.41;;;-0.88;76.46
61109;BME280;46995;55.740;37.402;2023-03-04T00:26:08;97735.03;;;-1.05;76.66
61109;BME280;46995;55.740;37.402;2023-03-04T00:28:36;97749.31;;;-1.00;76.61
61109;BME280;46995;55.740;37.402;2023-03-04T00:31:09;97764.53;;;-0.82;76.53
61109;BME280;46995;55.740;37.402;2023-03-04T00:33:37;97808.78;;;-0.60;76.29
61109;BME280;46995;55.740;37.402;2023-03-04T00:36:09;97786.50;;;-0.75;76.70
61109;BME280;46995;55.740;37.402;2023-03-04T00:39:03;97761.41;;;-0.88;76.71
61109;BME280;46995;55.740;37.402;2023-03-04T00:41:35;97726.09;;;-1.14;77.29
61109;BME280;46995;55.740;37.402;2023-03-04T00:44:04;97802.16;;;-0.64;76.83
61109;BME280;46995;55.740;37.402;2023-03-04T00:46:30;97753.03;;;-0.91;76.79
61109;BME280;46995;55.740;37.402;2023-03-04T00:48:59;97797.16;;;-0.67;76.82
61109;BME280;46995;55.740;37.402;2023-03-04T00:51:28;97744.13;;;-1.00;76.87
61109;BME280;46995;55.740;37.402;2023-03-04T00:53:54;97801.72;;;-0.58;76.69
61109;BME280;46995;55.740;37.402;2023-03-04T00:56:21;97796.22;;;-0.54;76.41
61109;BME280;46995;55.740;37.402;2023-03-04T00:58:47;97790.91;;;-0.52;76.31
61109;BME280;46995;55.740;37.402;2023-03-04T01:01:22;97790.91;;;-0.52;76.50
61109;BME280;46995;55.740;37.402;2023-03-04T01:03:48;97762.94;;;-0.72;76.45
61109;BME280;46995;55.740;37.402;2023-03-04T01:06:15;97801.50;;;-0.55;76.45
61109;BME280;46995;55.740;37.402;2023-03-04T01:08:41;97795.72;;;-0.59;76.43
61109;BME280;46995;55.740;37.402;2023-03-04T01:11:11;97788.44;;;-0.66;77.02
61109;BME280;46995;55.740;37.402;2023-03-04T01:13:39;97774.56;;;-0.78;77.01
61109;BME280;46995;55.740;37.402;2023-03-04T01:16:08;97753.03;;;-0.91;77.11
61109;BME280;46995;55.740;37.402;2023-03-04T01:18:35;97781.00;;;-0.58;76.87
61109;BME280;46995;55.740;37.402;2023-03-04T01:21:07;97742.88;;;-0.81;76.80
61109;BME280;46995;55.740;37.402;2023-03-04T01:23:33;97763.19;;;-0.75;77.04
61109;BME280;46995;55.740;37.402;2023-03-04T01:26:00;97706.22;;;-1.13;77.05
61109;BME280;46995;55.740;37.402;2023-03-04T01:28:26;97752.50;;;-0.83;77.27
61109;BME280;46995;55.740;37.402;2023-03-04T01:30:52;97749.28;;;-0.87;77.30
61109;BME280;46995;55.740;37.402;2023-03-04T01:33:32;97706.00;;;-1.10;77.48
61109;BME280;46995;55.740;37.402;2023-03-04T01:35:58;97729.84;;;-1.05;77.36
61109;BME280;46995;55.740;37.402;2023-03-04T01:38:27;97730.53;;;-1.03;77.63
61109;BME280;46995;55.740;37.402;2023-03-04T01:40:54;97715.44;;;-1.22;78.06
61109;BME280;46995;55.740;37.402;2023-03-04T01:43:30;97758.13;;;-0.90;77.81
61109;BME280;46995;55.740;37.402;2023-03-04T01:45:57;97761.31;;;-0.86;77.83
61109;BME280;46995;55.740;37.402;2023-03-04T01:48:35;97716.16;;;-1.20;78.00
61109;BME280;46995;55.740;37.402;2023-03-04T01:51:10;97761.41;;;-0.88;77.73
61109;BME280;46995;55.740;37.402;2023-03-04T01:53:46;97704.75;;;-1.30;77.67
61109;BME280;46995;55.740;37.402;2023-03-04T01:56:23;97677.84;;;-1.53;78.61
61109;BME280;46995;55.740;37.402;2023-03-04T01:59:13;97748.06;;;-1.07;78.74
61109;BME280;46995;55.740;37.402;2023-03-04T02:01:43;97690.28;;;-1.33;78.65
61109;BME280;46995;55.740;37.402;2023-03-04T02:04:10;97668.94;;;-1.36;78.07
61109;BME280;46995;55.740;37.402;2023-03-04T02:06:41;97736.25;;;-0.98;78.04
61109;BME280;46995;55.740;37.402;2023-03-04T02:09:10;97726.63;;;-0.96;77.95
61109;BME280;46995;55.740;37.402;2023-03-04T02:11:39;97717.19;;;-1.10;77.97
61109;BME280;46995;55.740;37.402;2023-03-04T02:14:11;97707.13;;;-1.14;78.35
61109;BME280;46995;55.740;37.402;2023-03-04T02:17:10;97715.72;;;-1.14;78.74
61109;BME280;46995;55.740;37.402;2023-03-04T02:25:30;97676.50;;;-1.33;78.97
61109;BME280;46995;55.740;37.402;2023-03-04T02:27:58;97666.03;;;-1.44;78.77
61109;BME280;46995;55.740;37.402;2023-03-04T02:30:26;97664.69;;;-1.37;79.02
61109;BME280;46995;55.740;37.402;2023-03-04T02:32:56;97640.47;;;-1.36;78.84
61109;BME280;46995;55.740;37.402;2023-03-04T02:35:22;97656.59;;;-1.20;78.48
61109;BME280;46995;55.740;37.402;2023-03-04T02:37:48;97653.06;;;-1.19;78.53
61109;BME280;46995;55.740;37.402;2023-03-04T02:40:30;97693.78;;;-0.96;78.33
61109;BME280;46995;55.740;37.402;2023-03-04T02:42:59;97687.16;;;-1.00;78.20
61109;BME280;46995;55.740;37.402;2023-03-04T02:45:45;97666.44;;;-1.00;78.07
61109;BME280;46995;55.740;37.402;2023-03-04T02:48:19;97608.47;;;-1.60;77.85
61109;BME280;46995;55.740;37.402;2023-03-04T02:50:48;97673.78;;;-1.19;78.87
61109;BME280;46995;55.740;37.402;2023-03-04T02:53:17;97632.06;;;-1.40;78.65
61109;BME280;46995;55.740;37.402;2023-03-04T02:55:51;97607.66;;;-1.48;78.45
61109;BME280;46995;55.740;37.402;2023-03-04T02:58:19;97680.50;;;-1.04;78.83
61109;BME280;46995;55.740;37.402;2023-03-04T03:00:47;97582.19;;;-1.54;78.48
61109;BME280;46995;55.740;37.402;2023-03-04T03:03:16;97587.97;;;-1.51;78.52
61109;BME280;46995;55.740;37.402;2023-03-04T03:05:43;97594.38;;;-1.44;78.49
61109;BME280;46995;55.740;37.402;2023-03-04T03:08:10;97661.53;;;-0.92;78.55
61109;BME280;46995;55.740;37.402;2023-03-04T03:10:38;97560.25;;;-1.61;78.29
61109;BME280;46995;55.740;37.402;2023-03-04T03:13:05;97658.00;;;-1.03;78.39
61109;BME280;46995;55.740;37.402;2023-03-04T03:15:32;97604.94;;;-1.34;78.43
61109;BME280;46995;55.740;37.402;2023-03-04T03:18:03;97649.13;;;-1.12;78.58
61109;BME280;46995;55.740;37.402;2023-03-04T03:20:32;97569.88;;;-1.63;78.28
61109;BME280;46995;55.740;37.402;2023-03-04T03:23:02;97630.00;;;-1.22;78.15
61109;BME280;46995;55.740;37.402;2023-03-04T03:25:32;97608.25;;;-1.45;78.79
61109;BME280;46995;55.740;37.402;2023-03-04T03:27:58;97644.59;;;-1.21;78.80
61109;BME280;46995;55.740;37.402;2023-03-04T03:30:24;97603.63;;;-1.52;78.59
61109;BME280;46995;55.740;37.402;2023-03-04T03:32:50;97612.81;;;-1.48;78.79
61109;BME280;46995;55.740;37.402;2023-03-04T03:35:28;97642.44;;;-1.27;78.71
61109;BME280;46995;55.740;37.402;2023-03-04T03:38:02;97611.47;;;-1.41;79.15
61109;BME280;46995;55.740;37.402;2023-03-04T03:40:31;97629.56;;;-1.29;79.20
61109;BME280;46995;55.740;37.402;2023-03-04T03:43:00;97623.59;;;-1.42;78.74
61109;BME280;46995;55.740;37.402;2023-03-04T03:45:26;97629.56;;;-1.41;78.76
61109;BME280;46995;55.740;37.402;2023-03-04T03:47:55;97625.88;;;-1.37;79.39
61109;BME280;46995;55.740;37.402;2023-03-04T03:50:21;97569.38;;;-1.68;79.51
61109;BME280;46995;55.740;37.402;2023-03-04T03:52:47;97606.81;;;-1.36;79.07
61109;BME280;46995;55.740;37.402;2023-03-04T03:55:16;97553.22;;;-1.72;79.44
61109;BME280;46995;55.740;37.402;2023-03-04T03:57:42;97576.78;;;-1.51;79.47
61109;BME280;46995;55.740;37.402;2023-03-04T04:00:13;97495.50;;;-1.98;79.44
61109;BME280;46995;55.740;37.402;2023-03-04T04:02:39;97578.25;;;-1.47;79.71
61109;BME280;46995;55.740;37.402;2023-03-04T04:05:09;97461.78;;;-2.09;79.85
61109;BME280;46995;55.740;37.402;2023-03-04T04:07:38;97585.66;;;-1.30;79.65
61109;BME280;46995;55.740;37.402;2023-03-04T04:10:11;97552.16;;;-1.44;79.63
61109;BME280;46995;55.740;37.402;2023-03-04T04:12:42;97552.03;;;-1.43;79.37
61109;BME280;46995;55.740;37.402;2023-03-04T04:15:12;97574.84;;;-1.11;79.44
61109;BME280;46995;55.740;37.402;2023-03-04T04:17:38;97532.25;;;-1.31;79.58
61109;BME280;46995;55.740;37.402;2023-03-04T04:20:06;97529.34;;;-1.26;78.88
61109;BME280;46995;55.740;37.402;2023-03-04T04:22:35;97532.41;;;-1.21;79.47
61109;BME280;46995;55.740;37.402;2023-03-04T04:25:04;97533.34;;;-1.22;79.12
61109;BME280;46995;55.740;37.402;2023-03-04T04:27:30;97518.56;;;-1.33;79.10
61109;BME280;46995;55.740;37.402;2023-03-04T04:29:56;97501.09;;;-1.42;79.09
61109;BME280;46995;55.740;37.402;2023-03-04T04:32:23;97534.69;;;-1.17;78.95
61109;BME280;46995;55.740;37.402;2023-03-04T04:34:49;97555.56;;;-1.07;79.16
61109;BME280;46995;55.740;37.402;2023-03-04T04:37:15;97500.34;;;-1.32;78.88
61109;BME280;46995;55.740;37.402;2023-03-04T04:39:50;97490.44;;;-1.38;79.24
61109;BME280;46995;55.740;37.402;2023-03-04T04:42:17;97485.56;;;-1.42;79.08
61109;BME280;46995;55.740;37.402;2023-03-04T04:44:46;97509.66;;;-1.29;78.96
61109;BME280;46995;55.740;37.402;2023-03-04T04:47:12;97435.03;;;-1.72;78.99
61109;BME280;46995;55.740;37.402;2023-03-04T04:49:40;97438.91;;;-1.53;79.22
61109;BME280;46995;55.740;37.402;2023-03-04T04:52:06;97459.53;;;-1.28;78.72
61109;BME280;46995;55.740;37.402;2023-03-04T04:54:32;97487.19;;;-1.05;78.58
61109;BME280;46995;55.740;37.402;2023-03-04T04:57:01;97510.94;;;-0.87;78.29
61109;BME280;46995;55.740;37.402;2023-03-04T04:59:27;97527.50;;;-0.66;78.08
61109;BME280;46995;55.740;37.402;2023-03-04T05:01:58;97540.41;;;-0.53;77.69
61109;BME280;46995;55.740;37.402;2023-03-04T05:04:29;97505.22;;;-0.79;77.87
61109;BME280;46995;55.740;37.402;2023-03-04T05:06:58;97472.66;;;-0.95;77.42
61109;BME280;46995;55.740;37.402;2023-03-04T05:09:24;97523.41;;;-0.57;77.83
61109;BME280;46995;55.740;37.402;2023-03-04T05:11:50;97482.59;;;-0.77;77.47
61109;BME280;46995;55.740;37.402;2023-03-04T05:14:16;97487.31;;;-0.71;77.33
61109;BME280;46995;55.740;37.402;2023-03-04T05:16:42;97444.84;;;-0.93;77.41
61109;BME280;46995;55.740;37.402;2023-03-04T05:19:08;97506.97;;;-0.45;77.33
61109;BME280;46995;55.740;37.402;2023-03-04T05:21:45;97501.66;;;-0.44;77.16
61109;BME280;46995;55.740;37.402;2023-03-04T05:24:14;97440.91;;;-0.74;77.09
61109;BME280;46995;55.740;37.402;2023-03-04T05:26:40;97468.28;;;-0.59;76.37
61109;BME280;46995;55.740;37.402;2023-03-04T05:29:06;97456.94;;;-0.69;76.82
61109;BME280;46995;55.740;37.402;2023-03-04T05:31:33;97492.09;;;-0.54;76.70
61109;BME280;46995;55.740;37.402;2023-03-04T05:34:00;97484.28;;;-0.65;77.34
61109;BME280;46995;55.740;37.402;2023-03-04T05:36:26;97506.94;;;-0.56;77.14
61109;BME280;46995;55.740;37.402;2023-03-04T05:38:53;97527.25;;;-0.39;77.19
61109;BME280;46995;55.740;37.402;2023-03-04T05:41:19;97527.50;;;-0.31;77.07
61109;BME280;46995;55.740;37.402;2023-03-04T05:43:48;97512.28;;;-0.35;76.97
61109;BME280;46995;55.740;37.402;2023-03-04T05:46:15;97497.81;;;-0.38;76.90
61109;BME280;46995;55.740;37.402;2023-03-04T05:48:42;97515.75;;;-0.24;77.11
61109;BME280;46995;55.740;37.402;2023-03-04T05:51:08;97506.06;;;-0.33;76.71
61109;BME280;46995;55.740;37.402;2023-03-04T05:53:35;97483.25;;;-0.52;77.10
61109;BME280;46995;55.740;37.402;2023-03-04T05:56:13;97489.78;;;-0.35;76.98
61109;BME280;46995;55.740;37.402;2023-03-04T05:58:43;97460.53;;;-0.48;76.89
61109;BME280;46995;55.740;37.402;2023-03-04T06:01:09;97492.97;;;-0.31;76.95
61109;BME280;46995;55.740;37.402;2023-03-04T06:03:36;97491.47;;;-0.23;76.88
61109;BME280;46995;55.740;37.402;2023-03-04T06:06:02;97479.56;;;-0.14;76.77
61109;BME280;46995;55.740;37.402;2023-03-04T06:08:30;97479.56;;;-0.03;76.38
61109;BME280;46995;55.740;37.402;2023-03-04T06:10:56;97463.44;;;-0.07;76.02
61109;BME280;46995;55.740;37.402;2023-03-04T06:13:24;97491.00;;;0.17;76.19
61109;BME280;46995;55.740;37.402;2023-03-04T06:15:54;97491.03;;;0.28;75.88
61109;BME280;46995;55.740;37.402;2023-03-04T06:18:22;97451.28;;;0.05;75.76
61109;BME280;46995;55.740;37.402;2023-03-04T06:20:49;97491.03;;;0.28;75.38
61109;BME280;46995;55.740;37.402;2023-03-04T06:23:15;97469.22;;;0.19;75.43
61109;BME280;46995;55.740;37.402;2023-03-04T06:25:41;97468.28;;;0.20;75.69
61109;BME280;46995;55.740;37.402;2023-03-04T06:28:07;97421.66;;;-0.15;75.72
61109;BME280;46995;55.740;37.402;2023-03-04T06:30:33;97432.03;;;-0.04;75.41
61109;BME280;46995;55.740;37.402;2023-03-04T06:32:59;97451.88;;;0.09;75.98
61109;BME280;46995;55.740;37.402;2023-03-04T06:35:25;97471.56;;;0.33;75.47
61109;BME280;46995;55.740;37.402;2023-03-04T06:37:50;97467.06;;;0.47;75.33
61109;BME280;46995;55.740;37.402;2023-03-04T06:40:16;97467.38;;;0.53;74.63
61109;BME280;46995;55.740;37.402;2023-03-04T06:42:42;97434.63;;;0.41;74.58
61109;BME280;46995;55.740;37.402;2023-03-04T06:45:09;97468.78;;;0.68;74.00
61109;BME280;46995;55.740;37.402;2023-03-04T06:47:35;97429.41;;;0.52;73.79
61109;BME280;46995;55.740;37.402;2023-03-04T06:50:01;97456.97;;;0.75;74.05
61109;BME280;46995;55.740;37.402;2023-03-04T06:52:29;97403.22;;;0.44;73.88
61109;BME280;46995;55.740;37.402;2023-03-04T06:54:55;97404.81;;;0.67;73.60
61109;BME280;46995;55.740;37.402;2023-03-04T06:57:24;97386.84;;;0.64;73.22
61109;BME280;46995;55.740;37.402;2023-03-04T06:59:50;97436.56;;;1.03;73.45
61109;BME280;46995;55.740;37.402;2023-03-04T07:02:18;97441.00;;;1.12;73.47
61109;BME280;46995;55.740;37.402;2023-03-04T07:04:44;97433.91;;;1.14;73.37
61109;BME280;46995;55.740;37.402;2023-03-04T07:07:13;97411.72;;;1.10;74.04
61109;BME280;46995;55.740;37.402;2023-03-04T07:09:52;97405.38;;;1.03;74.22
61109;BME280;46995;55.740;37.402;2023-03-04T07:12:17;97387.94;;;0.94;73.78
61109;BME280;46995;55.740;37.402;2023-03-04T07:14:43;97404.38;;;1.15;73.72
61109;BME280;46995;55.740;37.402;2023-03-04T07:17:09;97372.81;;;0.99;73.86
61109;BME280;46995;55.740;37.402;2023-03-04T07:19:40;97299.13;;;0.47;73.53
61109;BME280;46995;55.740;37.402;2023-03-04T07:22:06;97300.19;;;0.45;73.78
61109;BME280;46995;55.740;37.402;2023-03-04T07:24:36;97350.34;;;0.98;73.93
61109;BME280;46995;55.740;37.402;2023-03-04T07:27:02;97328.91;;;0.84;73.39
61109;BME280;46995;55.740;37.402;2023-03-04T07:29:28;97374.06;;;1.25;73.95
61109;BME280;46995;55.740;37.402;2023-03-04T07:31:55;97349.19;;;1.32;73.87
61109;BME280;46995;55.740;37.402;2023-03-04T07:34:21;97366.19;;;1.57;73.03
61109;BME280;46995;55.740;37.402;2023-03-04T07:36:50;97326.22;;;1.37;71.99
61109;BME280;46995;55.740;37.402;2023-03-04T07:39:32;97307.34;;;1.35;72.47
61109;BME280;46995;55.740;37.402;2023-03-04T07:41:59;97359.44;;;1.54;72.07
61109;BME280;46995;55.740;37.402;2023-03-04T07:44:25;97363.00;;;1.53;73.05
61109;BME280;46995;55.740;37.402;2023-03-04T07:46:51;97329.19;;;1.23;72.69
61109;BME280;46995;55.740;37.402;2023-03-04T07:49:17;97372.66;;;1.42;72.61
61109;BME280;46995;55.740;37.402;2023-03-04T07:51:43;97364.69;;;1.34;73.05
61109;BME280;46995;55.740;37.402;2023-03-04T07:54:09;97380.16;;;1.35;72.78
61109;BME280;46995;55.740;37.402;2023-03-04T07:56:35;97326.91;;;1.09;72.56
61109;BME280;46995;55.740;37.402;2023-03-04T07:59:03;97352.50;;;1.34;72.68
61109;BME280;46995;55.740;37.402;2023-03-04T08:01:33;97351.41;;;1.37;72.25
61109;BME280;46995;55.740;37.402;2023-03-04T08:04:00;97269.59;;;0.90;71.77
61109;BME280;46995;55.740;37.402;2023-03-04T08:06:26;97317.59;;;1.37;71.92
61109;BME280;46995;55.740;37.402;2023-03-04T08:08:58;97305.75;;;1.44;71.33
61109;BME280;46995;55.740;37.402;2023-03-04T08:11:25;97317.56;;;1.57;71.32
61109;BME280;46995;55.740;37.402;2023-03-04T08:13:51;97351.09;;;1.81;71.64
61109;BME280;46995;55.740;37.402;2023-03-04T08:16:20;97347.66;;;1.81;71.03
61109;BME280;46995;55.740;37.402;2023-03-04T08:18:49;97285.50;;;1.47;71.00
61109;BME280;46995;55.740;37.402;2023-03-04T08:21:21;97287.25;;;1.47;70.75
61109;BME280;46995;55.740;37.402;2023-03-04T08:23:50;97279.00;;;1.32;71.15
61109;BME280;46995;55.740;37.402;2023-03-04T08:28:44;97317.88;;;1.34;71.34
61109;BME280;46995;55.740;37.402;2023-03-04T08:31:17;97280.06;;;1.20;71.48
61109;BME280;46995;55.740;37.402;2023-03-04T08:33:46;97233.44;;;0.98;71.40
61109;BME280;46995;55.740;37.402;2023-03-04T08:36:13;97285.56;;;1.36;70.99
61109;BME280;46995;55.740;37.402;2023-03-04T08:38:49;97273.63;;;1.24;70.81
61109;BME280;46995;55.740;37.402;2023-03-04T08:41:20;97328.28;;;1.64;71.65
61109;BME280;46995;55.740;37.402;2023-03-04T08:43:50;97250.06;;;1.16;71.04
61109;BME280;46995;55.740;37.402;2023-03-04T08:46:16;97320.03;;;1.59;71.19
61109;BME280;46995;55.740;37.402;2023-03-04T08:48:42;97284.53;;;1.48;71.42
61109;BME280;46995;55.740;37.402;2023-03-04T08:51:11;97258.66;;;1.47;71.13
61109;BME280;46995;55.740;37.402;2023-03-04T08:53:38;97263.44;;;1.72;70.55
61109;BME280;46995;55.740;37.402;2023-03-04T08:56:05;97297.91;;;2.14;71.05
61109;BME280;46995;55.740;37.402;2023-03-04T08:58:31;97272.94;;;2.21;70.31
61109;BME280;46995;55.740;37.402;2023-03-04T09:01:02;97295.31;;;2.33;70.29
61109;BME280;46995;55.740;37.402;2023-03-04T09:03:48;97232.34;;;1.80;70.82
61109;BME280;46995;55.740;37.402;2023-03-04T09:06:20;97205.59;;;1.59;70.64
61109;BME280;46995;55.740;37.402;2023-03-04T09:08:57;97183.97;;;1.58;70.61
61109;BME280;46995;55.740;37.402;2023-03-04T09:11:23;97230.59;;;2.09;69.96
61109;BME280;46995;55.740;37.402;2023-03-04T09:13:53;97265.97;;;2.31;69.58
61109;BME280;46995;55.740;37.402;2023-03-04T09:16:23;97222.94;;;1.98;69.55
61109;BME280;46995;55.740;37.402;2023-03-04T09:18:55;97252.28;;;2.29;69.45
61109;BME280;46995;55.740;37.402;2023-03-04T09:21:21;97225.66;;;2.16;69.55
61109;BME280;46995;55.740;37.402;2023-03-04T09:23:51;97151.56;;;1.72;68.85
61109;BME280;46995;55.740;37.402;2023-03-04T09:26:25;97212.25;;;2.11;68.33
61109;BME280;46995;55.740;37.402;2023-03-04T09:28:56;97153.34;;;1.72;68.58
61109;BME280;46995;55.740;37.402;2023-03-04T09:31:24;97185.38;;;2.01;68.27
61109;BME280;46995;55.740;37.402;2023-03-04T09:33:51;97161.84;;;1.93;68.07
61109;BME280;46995;55.740;37.402;2023-03-04T09:36:26;97229.09;;;2.36;67.82
61109;BME280;46995;55.740;37.402;2023-03-04T09:38:52;97181.56;;;2.15;67.33
61109;BME280;46995;55.740;37.402;2023-03-04T09:41:33;97194.97;;;2.39;67.05
61109;BME280;46995;55.740;37.402;2023-03-04T09:44:14;97195.25;;;2.45;66.99
61109;BME280;46995;55.740;37.402;2023-03-04T09:46:44;97128.09;;;2.20;66.69
61109;BME280;46995;55.740;37.402;2023-03-04T09:49:15;97174.94;;;2.59;66.33
61109;BME280;46995;55.740;37.402;2023-03-04T09:51:59;97142.34;;;2.35;66.59
61109;BME280;46995;55.740;37.402;2023-03-04T09:56:58;97180.66;;;2.72;65.78
61109;BME280;46995;55.740;37.402;2023-03-04T09:59:37;97167.50;;;2.64;66.06
61109;BME280;46995;55.740;37.402;2023-03-04T10:02:28;97163.41;;;2.61;66.11
61109;BME280;46995;55.740;37.402;2023-03-04T10:04:59;97158.34;;;2.60;66.39
61109;BME280;46995;55.740;37.402;2023-03-04T10:07:37;97147.63;;;2.63;66.01
61109;BME280;46995;55.740;37.402;2023-03-04T10:10:32;97123.22;;;2.64;66.18
61109;BME280;46995;55.740;37.402;2023-03-04T10:13:05;97152.63;;;2.93;65.52
61109;BME280;46995;55.740;37.402;2023-03-04T10:15:42;97146.63;;;3.10;65.13
61109;BME280;46995;55.740;37.402;2023-03-04T10:20:58;97129.44;;;3.17;64.73
61109;BME280;46995;55.740;37.402;2023-03-04T10:23:27;97116.03;;;3.12;65.61
61109;BME280;46995;55.740;37.402;2023-03-04T10:25:54;97066.19;;;2.88;65.41
61109;BME280;46995;55.740;37.402;2023-03-04T10:28:24;97098.03;;;3.36;65.00
61109;BME280;46995;55.740;37.402;2023-03-04T10:33:39;97115.66;;;3.52;65.22
61109;BME280;46995;55.740;37.402;2023-03-04T10:38:43;97103.66;;;3.59;64.94
61109;BME280;46995;55.740;37.402;2023-03-04T10:41:20;97100.31;;;3.49;65.25
61109;BME280;46995;55.740;37.402;2023-03-04T10:43:50;97099.44;;;3.31;66.16
61109;BME280;46995;55.740;37.402;2023-03-04T10:46:25;97077.03;;;2.93;66.87
61109;BME280;46995;55.740;37.402;2023-03-04T10:48:53;97101.66;;;2.98;67.18
61109;BME280;46995;55.740;37.402;2023-03-04T10:51:25;97084.59;;;2.86;67.62
61109;BME280;46995;55.740;37.402;2023-03-04T10:54:09;97077.31;;;2.90;67.39
61109;BME280;46995;55.740;37.402;2023-03-04T10:57:14;97065.16;;;2.81;67.73
61109;BME280;46995;55.740;37.402;2023-03-04T10:59:48;97078.00;;;2.92;67.46
61109;BME280;46995;55.740;37.402;2023-03-04T11:04:51;97068.41;;;2.83;67.92
61109;BME280;46995;55.740;37.402;2023-03-04T11:07:22;97073.09;;;2.79;68.15
61109;BME280;46995;55.740;37.402;2023-03-04T11:09:49;97062.63;;;2.62;68.47
61109;BME280;46995;55.740;37.402;2023-03-04T11:12:19;97071.28;;;2.52;68.77
61109;BME280;46995;55.740;37.402;2023-03-04T11:14:50;97064.72;;;2.48;68.65
61109;BME280;46995;55.740;37.402;2023-03-04T11:17:26;97050.34;;;2.44;69.07
61109;BME280;46995;55.740;37.402;2023-03-04T11:20:04;97052.13;;;2.44;69.45
61109;BME280;46995;55.740;37.402;2023-03-04T11:22:33;97037.91;;;2.38;69.90
61109;BME280;46995;55.740;37.402;2023-03-04T11:25:06;97047.44;;;2.47;70.42
61109;BME280;46995;55.740;37.402;2023-03-04T11:27:43;97043.78;;;2.40;71.57
61109;BME280;46995;55.740;37.402;2023-03-04T11:33:05;97038.03;;;2.37;72.22
61109;BME280;46995;55.740;37.402;2023-03-04T11:35:41;97032.00;;;2.36;72.71
61109;BME280;46995;55.740;37.402;2023-03-04T11:38:26;96994.25;;;2.13;72.38
61109;BME280;46995;55.740;37.402;2023-03-04T11:40:56;96995.19;;;2.22;72.84
61109;BME280;46995;55.740;37.402;2023-03-04T11:43:38;97009.19;;;2.11;74.49
61109;BME280;46995;55.740;37.402;2023-03-04T11:51:49;97004.44;;;1.97;74.85
61109;BME280;46995;55.740;37.402;2023-03-04T11:57:02;96978.28;;;1.89;75.63
61109;BME280;46995;55.740;37.402;2023-03-04T11:59:42;96994.72;;;1.99;75.80
61109;BME280;46995;55.740;37.402;2023-03-04T12:09:47;96945.75;;;1.75;76.07
61109;BME280;46995;55.740;37.402;2023-03-04T12:15:00;96974.31;;;2.04;75.25
61109;BME280;46995;55.740;37.402;2023-03-04T12:24:02;96943.09;;;1.85;75.88
61109;BME280;46995;55.740;37.402;2023-03-04T12:26:49;96908.00;;;1.61;76.71
61109;BME280;46995;55.740;37.402;2023-03-04T12:35:36;96943.53;;;1.80;77.49
61109;BME280;46995;55.740;37.402;2023-03-04T12:38:02;96928.44;;;1.84;77.05
61109;BME280;46995;55.740;37.402;2023-03-04T12:40:49;96920.41;;;1.77;76.53
61109;BME280;46995;55.740;37.402;2023-03-04T12:43:40;96921.91;;;1.80;76.68
61109;BME280;46995;55.740;37.402;2023-03-04T12:48:42;96920.50;;;1.85;76.74
61109;BME280;46995;55.740;37.402;2023-03-04T12:54:22;96909.69;;;1.90;75.86
61109;BME280;46995;55.740;37.402;2023-03-04T12:59:33;96910.19;;;1.66;77.59
61109;BME280;46995;55.740;37.402;2023-03-04T13:05:07;96892.31;;;1.81;78.54
61109;BME280;46995;55.740;37.402;2023-03-04T13:10:28;96877.00;;;1.78;77.63
61109;BME280;46995;55.740;37.402;2023-03-04T13:12:55;96880.97;;;1.82;77.31
61109;BME280;46995;55.740;37.402;2023-03-04T13:15:32;96875.84;;;1.90;77.34
61109;BME280;46995;55.740;37.402;2023-03-04T13:18:28;96851.78;;;1.88;77.06
61109;BME280;46995;55.740;37.402;2023-03-04T13:23:36;96849.06;;;1.80;78.95
61109;BME280;46995;55.740;37.402;2023-03-04T13:28:46;96796.63;;;1.47;80.20
61109;BME280;46995;55.740;37.402;2023-03-04T13:31:24;96808.75;;;1.66;79.00
61109;BME280;46995;55.740;37.402;2023-03-04T13:33:54;96816.50;;;1.76;78.09
61109;BME280;46995;55.740;37.402;2023-03-04T13:36:33;96797.78;;;1.62;77.41
61109;BME280;46995;55.740;37.402;2023-03-04T13:39:31;96829.41;;;1.95;77.91
61109;BME280;46995;55.740;37.402;2023-03-04T13:42:02;96757.53;;;1.39;77.47
61109;BME280;46995;55.740;37.402;2023-03-04T13:44:34;96816.56;;;1.84;77.62
61109;BME280;46995;55.740;37.402;2023-03-04T13:47:31;96756.25;;;1.43;77.63
61109;BME280;46995;55.740;37.402;2023-03-04T13:53:25;96814.66;;;1.86;77.86
61109;BME280;46995;55.740;37.402;2023-03-04T13:58:35;96776.19;;;1.62;77.71
61109;BME280;46995;55.740;37.402;2023-03-04T14:01:03;96770.03;;;1.53;78.11
61109;BME280;46995;55.740;37.402;2023-03-04T14:03:39;96744.41;;;1.31;77.95
61109;BME280;46995;55.740;37.402;2023-03-04T14:08:54;96720.44;;;1.00;78.71
61109;BME280;46995;55.740;37.402;2023-03-04T14:11:25;96716.13;;;0.91;78.80
61109;BME280;46995;55.740;37.402;2023-03-04T14:13:54;96668.59;;;0.71;78.93
61109;BME280;46995;55.740;37.402;2023-03-04T14:16:26;96682.47;;;0.90;79.11
61109;BME280;46995;55.740;37.402;2023-03-04T14:19:01;96772.13;;;1.50;79.41
61109;BME280;46995;55.740;37.402;2023-03-04T14:21:30;96732.97;;;1.24;79.21
61109;BME280;46995;55.740;37.402;2023-03-04T14:24:11;96694.03;;;1.05;79.78
61109;BME280;46995;55.740;37.402;2023-03-04T14:26:38;96707.44;;;1.10;79.29
61109;BME280;46995;55.740;37.402;2023-03-04T14:29:22;96774.97;;;1.56;79.35
61109;BME280;46995;55.740;37.402;2023-03-04T14:32:01;96760.47;;;1.54;79.63
61109;BME280;46995;55.740;37.402;2023-03-04T14:34:31;96688.84;;;1.05;79.12
61109;BME280;46995;55.740;37.402;2023-03-04T14:37:03;96677.78;;;1.03;79.32
61109;BME280;46995;55.740;37.402;2023-03-04T14:39:43;96701.56;;;1.08;79.32